Jo Spirit — LARU5 — position and weather

sailwx.info

Track history (hours):
 
Tides and Currents Weather Stations Pressure Air Temp Water Temp Dewpoint Dewpoint Depression Visibility Wind Speed Wind Dir Waves Ship Positions

Jo Spirit

Last reported at 2018-Jan-31 10:36 UTC. Time now 2018-Feb-19 20:10 UTC.
Position N 09°37' W 079°45'.
Warning: this ship's position is 19 days out of date.

Length 107 m; draft 7 m.

Type: Ship (hazmat cat C). MMSI: 257826000.

Date/timePositionNaut miles runAvg speedWind from/ knotsBaromVisibWave heightAir tempDewpointWater temp
2018-Jan-31 10:36N 09°37' W 079°45'111.2
2018-Jan-31 10:30N 09°36' W 079°46'611.4
2018-Jan-31 09:59N 09°32' W 079°50'511.4
2018-Jan-31 09:31N 09°28' W 079°53'5 9.9
2018-Jan-31 09:00N 09°23' W 079°55'4 7.8
2018-Jan-31 08:30N 09°19' W 079°55'3 3.8
2018-Jan-31 07:49N 09°17' W 079°55'0 0.6
2018-Jan-31 07:16N 09°16' W 079°55'1 1.7
2018-Jan-31 06:55N 09°16' W 079°55'2 5.7
2018-Jan-31 06:30N 09°13' W 079°55'  
Track history (hours):
 
Tides and Currents Weather Stations Pressure Air Temp Water Temp Dewpoint Dewpoint Depression Visibility Wind Speed Wind Dir Waves Ship Positions

Jo Spirit

Last reported at 2018-Jan-31 10:36 UTC. Time now 2018-Feb-19 20:10 UTC.
Position N 09°37' W 079°45'.
Warning: this ship's position is 19 days out of date.

Length 107 m; draft 7 m.

Type: Ship (hazmat cat C). MMSI: 257826000.

Date/timePositionNaut miles runAvg speedWind from/ knotsBaromVisibWave heightAir tempDewpointWater temp
2018-Jan-31 10:36N 09°37' W 079°45'111.2
2018-Jan-31 10:30N 09°36' W 079°46'611.4
2018-Jan-31 09:59N 09°32' W 079°50'511.4
2018-Jan-31 09:31N 09°28' W 079°53'5 9.9
2018-Jan-31 09:00N 09°23' W 079°55'4 7.8
2018-Jan-31 08:30N 09°19' W 079°55'3 3.8
2018-Jan-31 07:49N 09°17' W 079°55'0 0.6
2018-Jan-31 07:16N 09°16' W 079°55'1 1.7
2018-Jan-31 06:55N 09°16' W 079°55'2 5.7
2018-Jan-31 06:30N 09°13' W 079°55'  

Dump ship's entire track history